sensor_id;sensor_type;location;lat;lon;timestamp;pressure;altitude;pressure_sealevel;temperature;humidity
36932;BME280;22847;42.654;23.370;2023-12-20T00:02:14;95058.66;;;5.08;70.13
36932;BME280;22847;42.654;23.370;2023-12-20T00:04:39;95044.78;;;5.09;69.84
36932;BME280;22847;42.654;23.370;2023-12-20T00:07:05;95039.81;;;5.06;68.67
36932;BME280;22847;42.654;23.370;2023-12-20T00:09:30;95023.91;;;5.00;68.86
36932;BME280;22847;42.654;23.370;2023-12-20T00:11:56;94869.59;;;4.00;69.11
36932;BME280;22847;42.654;23.370;2023-12-20T00:14:22;94916.78;;;4.28;69.61
36932;BME280;22847;42.654;23.370;2023-12-20T00:16:47;95029.25;;;4.84;69.92
36932;BME280;22847;42.654;23.370;2023-12-20T00:19:13;94969.91;;;4.57;70.47
36932;BME280;22847;42.654;23.370;2023-12-20T00:21:38;94874.00;;;3.98;70.91
36932;BME280;22847;42.654;23.370;2023-12-20T00:24:04;95020.81;;;4.94;71.22
36932;BME280;22847;42.654;23.370;2023-12-20T00:26:30;94812.53;;;3.26;71.31
36932;BME280;22847;42.654;23.370;2023-12-20T00:28:55;94957.00;;;4.44;71.71
36932;BME280;22847;42.654;23.370;2023-12-20T00:31:21;95019.81;;;4.58;72.56
36932;BME280;22847;42.654;23.370;2023-12-20T00:33:46;95010.56;;;4.80;71.95
36932;BME280;22847;42.654;23.370;2023-12-20T00:36:12;94820.94;;;3.69;72.31
36932;BME280;22847;42.654;23.370;2023-12-20T00:38:38;95001.16;;;4.92;71.80
36932;BME280;22847;42.654;23.370;2023-12-20T00:41:03;94983.16;;;4.78;71.68
36932;BME280;22847;42.654;23.370;2023-12-20T00:43:28;94998.56;;;4.92;71.47
36932;BME280;22847;42.654;23.370;2023-12-20T00:45:54;94986.78;;;4.88;71.63
36932;BME280;22847;42.654;23.370;2023-12-20T00:48:21;94935.59;;;4.55;71.61
36932;BME280;22847;42.654;23.370;2023-12-20T00:50:46;94993.53;;;4.90;71.51
36932;BME280;22847;42.654;23.370;2023-12-20T00:53:12;94862.47;;;4.17;71.29
36932;BME280;22847;42.654;23.370;2023-12-20T00:55:37;94976.06;;;4.81;71.24
36932;BME280;22847;42.654;23.370;2023-12-20T00:58:03;94992.34;;;4.82;71.11
36932;BME280;22847;42.654;23.370;2023-12-20T01:00:28;94910.53;;;4.44;70.72
36932;BME280;22847;42.654;23.370;2023-12-20T01:02:54;94916.91;;;4.52;70.05
36932;BME280;22847;42.654;23.370;2023-12-20T01:05:19;94986.25;;;4.70;70.38
36932;BME280;22847;42.654;23.370;2023-12-20T01:07:48;94997.41;;;4.71;70.38
36932;BME280;22847;42.654;23.370;2023-12-20T01:10:14;94956.63;;;4.63;70.45
36932;BME280;22847;42.654;23.370;2023-12-20T01:12:39;94963.09;;;4.56;70.71
36932;BME280;22847;42.654;23.370;2023-12-20T01:15:05;94945.09;;;4.42;70.60
36932;BME280;22847;42.654;23.370;2023-12-20T01:17:30;94986.34;;;4.56;70.59
36932;BME280;22847;42.654;23.370;2023-12-20T01:19:56;94946.66;;;4.44;70.68
36932;BME280;22847;42.654;23.370;2023-12-20T01:22:21;94911.44;;;4.31;70.13
36932;BME280;22847;42.654;23.370;2023-12-20T01:24:47;94908.84;;;4.31;69.91
36932;BME280;22847;42.654;23.370;2023-12-20T01:27:12;94929.13;;;4.49;69.94
36932;BME280;22847;42.654;23.370;2023-12-20T01:29:38;94716.50;;;3.24;69.33
36932;BME280;22847;42.654;23.370;2023-12-20T01:32:04;94942.75;;;4.64;69.53
36932;BME280;22847;42.654;23.370;2023-12-20T01:34:29;94926.94;;;4.56;69.59
36932;BME280;22847;42.654;23.370;2023-12-20T01:36:55;94957.44;;;4.76;69.33
36932;BME280;22847;42.654;23.370;2023-12-20T01:39:20;94774.09;;;3.63;69.85
36932;BME280;22847;42.654;23.370;2023-12-20T01:41:46;94928.06;;;4.52;70.28
36932;BME280;22847;42.654;23.370;2023-12-20T01:44:11;94755.72;;;3.42;70.88
36932;BME280;22847;42.654;23.370;2023-12-20T01:46:36;94891.19;;;4.25;71.18
36932;BME280;22847;42.654;23.370;2023-12-20T01:49:02;94849.28;;;4.21;70.60
36932;BME280;22847;42.654;23.370;2023-12-20T01:51:28;94863.22;;;4.19;71.25
36932;BME280;22847;42.654;23.370;2023-12-20T01:53:55;94922.69;;;4.42;71.57
36932;BME280;22847;42.654;23.370;2023-12-20T01:56:22;94715.84;;;3.21;72.03
36932;BME280;22847;42.654;23.370;2023-12-20T01:58:48;94912.34;;;4.17;72.60
36932;BME280;22847;42.654;23.370;2023-12-20T02:01:14;94726.84;;;3.37;72.04
36932;BME280;22847;42.654;23.370;2023-12-20T02:03:41;94865.28;;;4.14;72.46
36932;BME280;22847;42.654;23.370;2023-12-20T02:06:07;94786.16;;;3.75;71.99
36932;BME280;22847;42.654;23.370;2023-12-20T02:08:34;94873.44;;;4.20;72.03
36932;BME280;22847;42.654;23.370;2023-12-20T02:10:59;94891.84;;;4.41;72.26
36932;BME280;22847;42.654;23.370;2023-12-20T02:13:25;94830.38;;;4.08;71.90
36932;BME280;22847;42.654;23.370;2023-12-20T02:15:52;94874.06;;;4.49;71.65
36932;BME280;22847;42.654;23.370;2023-12-20T02:18:17;94905.47;;;4.56;71.51
36932;BME280;22847;42.654;23.370;2023-12-20T02:20:43;94884.91;;;4.54;71.03
36932;BME280;22847;42.654;23.370;2023-12-20T02:23:09;94876.97;;;4.57;70.95
36932;BME280;22847;42.654;23.370;2023-12-20T02:25:34;94862.63;;;4.40;71.37
36932;BME280;22847;42.654;23.370;2023-12-20T02:28:00;94873.84;;;4.39;72.31
36932;BME280;22847;42.654;23.370;2023-12-20T02:30:26;94865.28;;;4.26;71.99
36932;BME280;22847;42.654;23.370;2023-12-20T02:32:52;94819.53;;;4.16;71.21
36932;BME280;22847;42.654;23.370;2023-12-20T02:35:18;94868.19;;;4.47;71.47
36932;BME280;22847;42.654;23.370;2023-12-20T02:37:43;94851.03;;;4.33;69.81
36932;BME280;22847;42.654;23.370;2023-12-20T02:40:09;94872.72;;;4.31;69.49
36932;BME280;22847;42.654;23.370;2023-12-20T02:42:35;94848.75;;;4.29;70.66
36932;BME280;22847;42.654;23.370;2023-12-20T02:45:01;94819.31;;;3.93;71.29
36932;BME280;22847;42.654;23.370;2023-12-20T02:47:26;94847.63;;;4.20;71.67
36932;BME280;22847;42.654;23.370;2023-12-20T02:49:52;94855.06;;;4.12;70.48
36932;BME280;22847;42.654;23.370;2023-12-20T02:52:18;94787.22;;;3.72;70.14
36932;BME280;22847;42.654;23.370;2023-12-20T02:54:43;94852.47;;;3.99;69.93
36932;BME280;22847;42.654;23.370;2023-12-20T02:57:09;94865.22;;;3.88;69.83
36932;BME280;22847;42.654;23.370;2023-12-20T02:59:34;94850.72;;;4.00;69.02
36932;BME280;22847;42.654;23.370;2023-12-20T03:02:00;94843.13;;;3.84;69.17
36932;BME280;22847;42.654;23.370;2023-12-20T03:04:25;94662.72;;;2.66;68.66
36932;BME280;22847;42.654;23.370;2023-12-20T03:06:51;94729.91;;;3.02;68.33
36932;BME280;22847;42.654;23.370;2023-12-20T03:09:16;94871.69;;;3.69;68.79
36932;BME280;22847;42.654;23.370;2023-12-20T03:11:42;94705.53;;;2.81;68.44
36932;BME280;22847;42.654;23.370;2023-12-20T03:14:07;94717.00;;;2.63;69.17
36932;BME280;22847;42.654;23.370;2023-12-20T03:16:33;94817.41;;;3.31;68.97
36932;BME280;22847;42.654;23.370;2023-12-20T03:18:58;94707.81;;;2.59;68.57
36932;BME280;22847;42.654;23.370;2023-12-20T03:21:24;94790.97;;;3.14;68.90
36932;BME280;22847;42.654;23.370;2023-12-20T03:23:49;94845.16;;;3.40;68.77
36932;BME280;22847;42.654;23.370;2023-12-20T03:26:15;94738.63;;;2.87;68.63
36932;BME280;22847;42.654;23.370;2023-12-20T03:28:40;94725.41;;;2.79;68.51
36932;BME280;22847;42.654;23.370;2023-12-20T03:31:06;94717.25;;;2.73;68.99
36932;BME280;22847;42.654;23.370;2023-12-20T03:33:31;94830.94;;;3.47;69.44
36932;BME280;22847;42.654;23.370;2023-12-20T03:35:57;94840.97;;;3.51;69.65
36932;BME280;22847;42.654;23.370;2023-12-20T03:38:22;94838.09;;;3.56;69.60
36932;BME280;22847;42.654;23.370;2023-12-20T03:40:50;94837.22;;;3.43;69.77
36932;BME280;22847;42.654;23.370;2023-12-20T03:43:16;94839.22;;;3.52;69.19
36932;BME280;22847;42.654;23.370;2023-12-20T03:45:42;94832.44;;;3.51;68.85
36932;BME280;22847;42.654;23.370;2023-12-20T03:48:08;94742.69;;;2.77;69.90
36932;BME280;22847;42.654;23.370;2023-12-20T03:50:34;94813.00;;;3.33;70.55
36932;BME280;22847;42.654;23.370;2023-12-20T03:52:59;94850.69;;;3.34;70.64
36932;BME280;22847;42.654;23.370;2023-12-20T03:55:25;94816.69;;;3.29;69.97
36932;BME280;22847;42.654;23.370;2023-12-20T03:57:50;94716.94;;;2.77;70.30
36932;BME280;22847;42.654;23.370;2023-12-20T04:00:16;94825.72;;;3.48;69.59
36932;BME280;22847;42.654;23.370;2023-12-20T04:02:42;94802.03;;;3.29;70.72
36932;BME280;22847;42.654;23.370;2023-12-20T04:05:08;94786.56;;;3.29;70.75
36932;BME280;22847;42.654;23.370;2023-12-20T04:07:35;94816.47;;;3.32;70.93
36932;BME280;22847;42.654;23.370;2023-12-20T04:10:01;94724.47;;;2.80;69.81
36932;BME280;22847;42.654;23.370;2023-12-20T04:12:29;94813.28;;;3.55;69.43
36932;BME280;22847;42.654;23.370;2023-12-20T04:14:54;94805.41;;;3.56;69.32
36932;BME280;22847;42.654;23.370;2023-12-20T04:17:20;94785.81;;;3.54;69.13
36932;BME280;22847;42.654;23.370;2023-12-20T04:19:48;94717.31;;;2.98;69.25
36932;BME280;22847;42.654;23.370;2023-12-20T04:22:13;94802.50;;;3.48;69.77
36932;BME280;22847;42.654;23.370;2023-12-20T04:24:39;94801.50;;;3.51;70.08
36932;BME280;22847;42.654;23.370;2023-12-20T04:27:04;94595.91;;;2.25;70.32
36932;BME280;22847;42.654;23.370;2023-12-20T04:29:29;94639.81;;;2.49;69.98
36932;BME280;22847;42.654;23.370;2023-12-20T04:31:55;94832.22;;;3.54;70.41
36932;BME280;22847;42.654;23.370;2023-12-20T04:34:22;94782.34;;;3.55;71.26
36932;BME280;22847;42.654;23.370;2023-12-20T04:36:48;94780.66;;;3.54;71.38
36932;BME280;22847;42.654;23.370;2023-12-20T04:39:13;94625.59;;;2.70;71.12
36932;BME280;22847;42.654;23.370;2023-12-20T04:41:40;94769.44;;;3.55;71.33
36932;BME280;22847;42.654;23.370;2023-12-20T04:44:06;94752.56;;;3.24;72.10
36932;BME280;22847;42.654;23.370;2023-12-20T04:46:32;94783.00;;;3.32;72.72
36932;BME280;22847;42.654;23.370;2023-12-20T04:48:58;94775.88;;;3.35;72.10
36932;BME280;22847;42.654;23.370;2023-12-20T04:51:23;94818.03;;;3.07;73.33
36932;BME280;22847;42.654;23.370;2023-12-20T04:53:49;94767.03;;;3.12;72.63
36932;BME280;22847;42.654;23.370;2023-12-20T04:56:14;94627.13;;;2.33;73.07
36932;BME280;22847;42.654;23.370;2023-12-20T04:58:40;94772.25;;;3.38;72.38
36932;BME280;22847;42.654;23.370;2023-12-20T05:01:06;94788.78;;;3.48;71.09
36932;BME280;22847;42.654;23.370;2023-12-20T05:03:32;94768.28;;;3.46;69.63
36932;BME280;22847;42.654;23.370;2023-12-20T05:05:58;94783.31;;;3.40;70.18
36932;BME280;22847;42.654;23.370;2023-12-20T05:08:23;94769.81;;;3.36;69.70
36932;BME280;22847;42.654;23.370;2023-12-20T05:10:50;94751.00;;;3.22;68.65
36932;BME280;22847;42.654;23.370;2023-12-20T05:13:16;94763.09;;;3.34;69.85
36932;BME280;22847;42.654;23.370;2023-12-20T05:15:42;94785.53;;;3.19;70.38
36932;BME280;22847;42.654;23.370;2023-12-20T05:18:07;94756.06;;;2.96;69.50
36932;BME280;22847;42.654;23.370;2023-12-20T05:20:33;94781.78;;;3.10;69.53
36932;BME280;22847;42.654;23.370;2023-12-20T05:22:58;94675.75;;;2.50;68.21
36932;BME280;22847;42.654;23.370;2023-12-20T05:25:24;94762.34;;;2.92;67.73
36932;BME280;22847;42.654;23.370;2023-12-20T05:27:50;94761.97;;;2.84;68.36
36932;BME280;22847;42.654;23.370;2023-12-20T05:30:15;94737.63;;;2.76;68.38
36932;BME280;22847;42.654;23.370;2023-12-20T05:32:41;94758.78;;;2.81;68.44
36932;BME280;22847;42.654;23.370;2023-12-20T05:35:06;94743.31;;;2.81;68.46
36932;BME280;22847;42.654;23.370;2023-12-20T05:37:32;94691.84;;;2.54;68.75
36932;BME280;22847;42.654;23.370;2023-12-20T05:39:58;94696.84;;;2.43;70.34
36932;BME280;22847;42.654;23.370;2023-12-20T05:42:23;94756.50;;;2.76;70.66
36932;BME280;22847;42.654;23.370;2023-12-20T05:44:48;94691.78;;;2.41;71.33
36932;BME280;22847;42.654;23.370;2023-12-20T05:47:14;94590.25;;;1.65;71.49
36932;BME280;22847;42.654;23.370;2023-12-20T05:49:39;94718.84;;;2.61;71.68
36932;BME280;22847;42.654;23.370;2023-12-20T05:52:05;94771.50;;;2.69;72.04
36932;BME280;22847;42.654;23.370;2023-12-20T05:54:30;94687.75;;;2.37;72.62
36932;BME280;22847;42.654;23.370;2023-12-20T05:56:56;94742.34;;;2.69;72.59
36932;BME280;22847;42.654;23.370;2023-12-20T05:59:22;94703.53;;;2.45;72.39
36932;BME280;22847;42.654;23.370;2023-12-20T06:01:47;94721.22;;;2.64;72.54
36932;BME280;22847;42.654;23.370;2023-12-20T06:04:13;94600.28;;;1.96;72.57
36932;BME280;22847;42.654;23.370;2023-12-20T06:06:42;94741.03;;;2.76;72.68
36932;BME280;22847;42.654;23.370;2023-12-20T06:09:08;94678.22;;;2.25;74.18
36932;BME280;22847;42.654;23.370;2023-12-20T06:11:33;94724.00;;;2.61;75.05
36932;BME280;22847;42.654;23.370;2023-12-20T06:13:59;94611.69;;;1.92;75.51
36932;BME280;22847;42.654;23.370;2023-12-20T06:16:24;94742.50;;;2.80;74.87
36932;BME280;22847;42.654;23.370;2023-12-20T06:18:50;94737.69;;;2.88;74.10
36932;BME280;22847;42.654;23.370;2023-12-20T06:21:15;94765.53;;;2.96;73.10
36932;BME280;22847;42.654;23.370;2023-12-20T06:23:41;94645.50;;;2.27;72.70
36932;BME280;22847;42.654;23.370;2023-12-20T06:26:07;94565.19;;;1.54;73.09
36932;BME280;22847;42.654;23.370;2023-12-20T06:28:32;94744.44;;;2.77;73.18
36932;BME280;22847;42.654;23.370;2023-12-20T06:30:58;94730.22;;;2.57;73.74
36932;BME280;22847;42.654;23.370;2023-12-20T06:33:24;94694.59;;;2.51;73.70
36932;BME280;22847;42.654;23.370;2023-12-20T06:35:49;94605.06;;;2.02;73.71
36932;BME280;22847;42.654;23.370;2023-12-20T06:38:15;94625.97;;;2.10;73.72
36932;BME280;22847;42.654;23.370;2023-12-20T06:40:40;94705.91;;;2.75;73.76
36932;BME280;22847;42.654;23.370;2023-12-20T06:43:08;94702.75;;;2.84;73.30
36932;BME280;22847;42.654;23.370;2023-12-20T06:45:33;94563.09;;;2.02;73.23
36932;BME280;22847;42.654;23.370;2023-12-20T06:47:58;94710.88;;;3.05;72.72
36932;BME280;22847;42.654;23.370;2023-12-20T06:50:24;94704.75;;;3.33;72.73
36932;BME280;22847;42.654;23.370;2023-12-20T06:52:49;94582.81;;;2.94;71.00
36932;BME280;22847;42.654;23.370;2023-12-20T06:55:15;94672.53;;;3.78;69.73
36932;BME280;22847;42.654;23.370;2023-12-20T06:57:40;94705.25;;;4.75;67.80
36932;BME280;22847;42.654;23.370;2023-12-20T07:00:06;94691.78;;;5.07;64.49
36932;BME280;22847;42.654;23.370;2023-12-20T07:02:33;94718.38;;;5.44;63.36
36932;BME280;22847;42.654;23.370;2023-12-20T07:04:59;94679.41;;;6.69;61.63
36932;BME280;22847;42.654;23.370;2023-12-20T07:07:25;94690.50;;;8.88;56.63
36932;BME280;22847;42.654;23.370;2023-12-20T07:09:51;94654.28;;;11.01;50.43
36932;BME280;22847;42.654;23.370;2023-12-20T07:12:17;94612.31;;;12.59;45.88
36932;BME280;22847;42.654;23.370;2023-12-20T07:14:45;94679.41;;;14.56;41.05
36932;BME280;22847;42.654;23.370;2023-12-20T07:17:10;94554.50;;;14.47;37.69
36932;BME280;22847;42.654;23.370;2023-12-20T07:19:39;94652.63;;;16.21;36.61
36932;BME280;22847;42.654;23.370;2023-12-20T07:22:06;94666.28;;;17.27;34.62
36932;BME280;22847;42.654;23.370;2023-12-20T07:24:32;94661.63;;;18.08;32.77
36932;BME280;22847;42.654;23.370;2023-12-20T07:26:57;94651.44;;;18.88;31.49
36932;BME280;22847;42.654;23.370;2023-12-20T07:29:23;94645.59;;;19.47;29.85
36932;BME280;22847;42.654;23.370;2023-12-20T07:31:48;94645.59;;;18.58;29.62
36932;BME280;22847;42.654;23.370;2023-12-20T07:34:14;94634.34;;;16.57;31.65
36932;BME280;22847;42.654;23.370;2023-12-20T07:36:39;94503.22;;;13.89;34.61
36932;BME280;22847;42.654;23.370;2023-12-20T07:39:05;94678.50;;;13.02;37.38
36932;BME280;22847;42.654;23.370;2023-12-20T07:41:30;94604.78;;;11.88;40.81
36932;BME280;22847;42.654;23.370;2023-12-20T07:43:56;94526.09;;;11.99;40.30
36932;BME280;22847;42.654;23.370;2023-12-20T07:46:22;94669.50;;;11.59;41.64
36932;BME280;22847;42.654;23.370;2023-12-20T07:48:50;94662.91;;;10.57;44.14
36932;BME280;22847;42.654;23.370;2023-12-20T07:51:16;94684.19;;;9.86;46.81
36932;BME280;22847;42.654;23.370;2023-12-20T07:53:41;94485.47;;;8.16;49.64
36932;BME280;22847;42.654;23.370;2023-12-20T07:56:16;94595.44;;;8.36;51.08
36932;BME280;22847;42.654;23.370;2023-12-20T07:58:43;94623.75;;;8.08;52.56
36932;BME280;22847;42.654;23.370;2023-12-20T08:01:08;94663.38;;;8.01;53.77
36932;BME280;22847;42.654;23.370;2023-12-20T08:03:34;94658.34;;;7.88;55.02
36932;BME280;22847;42.654;23.370;2023-12-20T08:06:00;94647.88;;;7.69;55.63
36932;BME280;22847;42.654;23.370;2023-12-20T08:08:27;94532.44;;;7.12;56.19
36932;BME280;22847;42.654;23.370;2023-12-20T08:10:52;94640.03;;;7.59;56.33
36932;BME280;22847;42.654;23.370;2023-12-20T08:13:18;94642.69;;;7.69;57.62
36932;BME280;22847;42.654;23.370;2023-12-20T08:15:43;94626.97;;;7.71;57.10
36932;BME280;22847;42.654;23.370;2023-12-20T08:18:08;94631.56;;;7.57;57.74
36932;BME280;22847;42.654;23.370;2023-12-20T08:20:34;94632.72;;;7.95;57.34
36932;BME280;22847;42.654;23.370;2023-12-20T08:22:59;94617.44;;;7.71;58.08
36932;BME280;22847;42.654;23.370;2023-12-20T08:25:25;94616.03;;;7.67;58.75
36932;BME280;22847;42.654;23.370;2023-12-20T08:27:51;94633.22;;;7.89;59.32
36932;BME280;22847;42.654;23.370;2023-12-20T08:30:16;94620.25;;;7.89;57.91
36932;BME280;22847;42.654;23.370;2023-12-20T08:32:45;94626.81;;;7.93;57.22
36932;BME280;22847;42.654;23.370;2023-12-20T08:35:11;94545.59;;;7.41;57.14
36932;BME280;22847;42.654;23.370;2023-12-20T08:37:36;94599.19;;;7.61;57.33
36932;BME280;22847;42.654;23.370;2023-12-20T08:40:02;94604.34;;;7.73;57.54
36932;BME280;22847;42.654;23.370;2023-12-20T08:42:28;94615.97;;;7.57;57.94
36932;BME280;22847;42.654;23.370;2023-12-20T08:44:59;94581.56;;;7.35;58.01
36932;BME280;22847;42.654;23.370;2023-12-20T08:47:24;94597.72;;;7.38;58.47
36932;BME280;22847;42.654;23.370;2023-12-20T08:49:50;94512.16;;;6.76;59.15
36932;BME280;22847;42.654;23.370;2023-12-20T08:52:16;94597.13;;;7.35;59.85
36932;BME280;22847;42.654;23.370;2023-12-20T08:54:41;94578.88;;;7.15;61.25
36932;BME280;22847;42.654;23.370;2023-12-20T08:57:07;94620.94;;;7.19;61.47
36932;BME280;22847;42.654;23.370;2023-12-20T08:59:33;94575.72;;;6.80;61.99
36932;BME280;22847;42.654;23.370;2023-12-20T09:01:58;94603.47;;;6.89;62.04
36932;BME280;22847;42.654;23.370;2023-12-20T09:04:24;94587.88;;;6.80;62.98
36932;BME280;22847;42.654;23.370;2023-12-20T09:06:50;94548.69;;;6.41;63.07
36932;BME280;22847;42.654;23.370;2023-12-20T09:09:15;94520.66;;;6.35;64.22
36932;BME280;22847;42.654;23.370;2023-12-20T09:11:41;94529.69;;;6.20;64.25
36932;BME280;22847;42.654;23.370;2023-12-20T09:14:07;94557.00;;;6.45;64.04
36932;BME280;22847;42.654;23.370;2023-12-20T09:16:32;94556.69;;;6.38;64.86
36932;BME280;22847;42.654;23.370;2023-12-20T09:18:58;94501.78;;;6.23;64.59
36932;BME280;22847;42.654;23.370;2023-12-20T09:21:23;94521.72;;;6.44;64.75
36932;BME280;22847;42.654;23.370;2023-12-20T09:23:49;94439.38;;;5.95;64.22
36932;BME280;22847;42.654;23.370;2023-12-20T09:26:14;94510.09;;;6.38;64.43
36932;BME280;22847;42.654;23.370;2023-12-20T09:28:40;94523.06;;;6.27;65.02
36932;BME280;22847;42.654;23.370;2023-12-20T09:31:06;94370.50;;;5.39;65.68
36932;BME280;22847;42.654;23.370;2023-12-20T09:33:32;94507.53;;;6.27;65.99
36932;BME280;22847;42.654;23.370;2023-12-20T09:35:58;94528.03;;;6.19;66.04
36932;BME280;22847;42.654;23.370;2023-12-20T09:38:24;94472.22;;;5.94;65.76
36932;BME280;22847;42.654;23.370;2023-12-20T09:40:49;94484.78;;;5.76;67.65
36932;BME280;22847;42.654;23.370;2023-12-20T09:43:18;94316.09;;;4.76;67.78
36932;BME280;22847;42.654;23.370;2023-12-20T09:45:46;94331.31;;;5.01;66.69
36932;BME280;22847;42.654;23.370;2023-12-20T09:48:12;94439.28;;;5.31;67.53
36932;BME280;22847;42.654;23.370;2023-12-20T09:50:40;94480.78;;;5.95;67.64
36932;BME280;22847;42.654;23.370;2023-12-20T09:53:08;94390.31;;;5.61;67.20
36932;BME280;22847;42.654;23.370;2023-12-20T09:55:36;94471.38;;;6.37;66.23
36932;BME280;22847;42.654;23.370;2023-12-20T09:58:02;94330.47;;;5.66;66.49
36932;BME280;22847;42.654;23.370;2023-12-20T10:00:28;94419.19;;;6.41;65.51
36932;BME280;22847;42.654;23.370;2023-12-20T10:02:57;94464.75;;;7.06;66.92
36932;BME280;22847;42.654;23.370;2023-12-20T10:05:28;94453.06;;;7.51;66.05
36932;BME280;22847;42.654;23.370;2023-12-20T10:07:54;94437.16;;;7.35;65.48
36932;BME280;22847;42.654;23.370;2023-12-20T10:10:19;94409.56;;;7.65;64.76
36932;BME280;22847;42.654;23.370;2023-12-20T10:13:03;94425.84;;;7.86;63.09
36932;BME280;22847;42.654;23.370;2023-12-20T10:15:28;94435.63;;;7.63;63.29
36932;BME280;22847;42.654;23.370;2023-12-20T10:17:54;94451.25;;;7.82;64.77
36932;BME280;22847;42.654;23.370;2023-12-20T10:20:23;94410.28;;;7.86;63.58
36932;BME280;22847;42.654;23.370;2023-12-20T10:22:49;94421.88;;;8.11;62.69
36932;BME280;22847;42.654;23.370;2023-12-20T10:25:15;94421.66;;;8.42;63.17
36932;BME280;22847;42.654;23.370;2023-12-20T10:27:40;94397.59;;;8.50;62.71
36932;BME280;22847;42.654;23.370;2023-12-20T10:30:06;94414.06;;;8.87;61.16
36932;BME280;22847;42.654;23.370;2023-12-20T10:32:31;94369.88;;;8.87;61.10
36932;BME280;22847;42.654;23.370;2023-12-20T10:34:57;94396.97;;;9.31;60.16
36932;BME280;22847;42.654;23.370;2023-12-20T10:37:24;94409.66;;;9.71;58.54
36932;BME280;22847;42.654;23.370;2023-12-20T10:39:51;94406.63;;;9.94;58.14
36932;BME280;22847;42.654;23.370;2023-12-20T10:42:30;94258.84;;;9.25;58.46
36932;BME280;22847;42.654;23.370;2023-12-20T10:44:56;94365.19;;;10.00;55.80
36932;BME280;22847;42.654;23.370;2023-12-20T10:47:22;94371.25;;;9.73;57.54
36932;BME280;22847;42.654;23.370;2023-12-20T10:49:49;94372.75;;;9.76;57.44
36932;BME280;22847;42.654;23.370;2023-12-20T10:52:17;94172.03;;;8.36;56.72
36932;BME280;22847;42.654;23.370;2023-12-20T10:54:43;94265.34;;;9.11;57.46
36932;BME280;22847;42.654;23.370;2023-12-20T10:57:09;94353.56;;;9.77;56.15
36932;BME280;22847;42.654;23.370;2023-12-20T10:59:39;94362.81;;;9.89;57.16
36932;BME280;22847;42.654;23.370;2023-12-20T11:02:05;94371.13;;;9.75;57.30
36932;BME280;22847;42.654;23.370;2023-12-20T11:04:43;94195.34;;;8.08;58.47
36932;BME280;22847;42.654;23.370;2023-12-20T11:07:29;94349.97;;;9.06;58.98
36932;BME280;22847;42.654;23.370;2023-12-20T11:10:13;94301.91;;;8.82;58.40
36932;BME280;22847;42.654;23.370;2023-12-20T11:12:56;94368.44;;;9.12;58.28
36932;BME280;22847;42.654;23.370;2023-12-20T11:15:24;94340.78;;;9.11;57.60
36932;BME280;22847;42.654;23.370;2023-12-20T11:17:57;94325.44;;;9.18;58.81
36932;BME280;22847;42.654;23.370;2023-12-20T11:20:24;94311.69;;;8.61;60.78
36932;BME280;22847;42.654;23.370;2023-12-20T11:23:00;94320.41;;;8.70;60.82
36932;BME280;22847;42.654;23.370;2023-12-20T11:25:26;94285.97;;;8.68;61.59
36932;BME280;22847;42.654;23.370;2023-12-20T11:31:01;94299.06;;;9.03;59.54
36932;BME280;22847;42.654;23.370;2023-12-20T11:33:35;94260.94;;;8.67;59.41
36932;BME280;22847;42.654;23.370;2023-12-20T11:36:01;94265.53;;;8.45;60.82
36932;BME280;22847;42.654;23.370;2023-12-20T11:38:36;94150.34;;;7.71;61.03
36932;BME280;22847;42.654;23.370;2023-12-20T11:41:05;94185.53;;;7.93;62.38
36932;BME280;22847;42.654;23.370;2023-12-20T11:43:37;94173.44;;;7.74;61.84
36932;BME280;22847;42.654;23.370;2023-12-20T11:46:08;94187.19;;;7.84;61.82
36932;BME280;22847;42.654;23.370;2023-12-20T11:48:38;94280.00;;;8.29;62.83
36932;BME280;22847;42.654;23.370;2023-12-20T11:51:11;94254.94;;;8.57;62.48
36932;BME280;22847;42.654;23.370;2023-12-20T11:53:37;94251.66;;;8.91;63.01
36932;BME280;22847;42.654;23.370;2023-12-20T11:56:05;94251.34;;;8.94;61.60
36932;BME280;22847;42.654;23.370;2023-12-20T11:58:32;94111.72;;;7.68;61.72
36932;BME280;22847;42.654;23.370;2023-12-20T12:00:57;93973.88;;;7.07;61.93
36932;BME280;22847;42.654;23.370;2023-12-20T12:03:23;94121.84;;;8.35;61.90
36932;BME280;22847;42.654;23.370;2023-12-20T12:05:49;94196.81;;;8.58;61.97
36932;BME280;22847;42.654;23.370;2023-12-20T12:08:15;94219.91;;;8.88;61.47
36932;BME280;22847;42.654;23.370;2023-12-20T12:10:41;94219.03;;;8.70;61.45
36932;BME280;22847;42.654;23.370;2023-12-20T12:13:06;94073.25;;;7.91;61.16
36932;BME280;22847;42.654;23.370;2023-12-20T12:15:32;94120.75;;;8.38;61.28
36932;BME280;22847;42.654;23.370;2023-12-20T12:17:58;94209.03;;;9.20;59.81
36932;BME280;22847;42.654;23.370;2023-12-20T12:20:24;94203.13;;;9.27;59.69
36932;BME280;22847;42.654;23.370;2023-12-20T12:23:10;94105.13;;;8.65;58.95
36932;BME280;22847;42.654;23.370;2023-12-20T12:25:36;94115.38;;;8.67;58.75
36932;BME280;22847;42.654;23.370;2023-12-20T12:28:05;94191.88;;;9.09;59.67
36932;BME280;22847;42.654;23.370;2023-12-20T12:30:30;94176.16;;;8.83;59.87
36932;BME280;22847;42.654;23.370;2023-12-20T12:32:56;94206.22;;;9.13;59.43
36932;BME280;22847;42.654;23.370;2023-12-20T12:35:22;94191.72;;;9.11;59.94
36932;BME280;22847;42.654;23.370;2023-12-20T12:37:48;94198.19;;;9.07;60.18
36932;BME280;22847;42.654;23.370;2023-12-20T12:40:15;94209.34;;;9.17;60.26
36932;BME280;22847;42.654;23.370;2023-12-20T12:42:42;94117.97;;;8.49;61.16
36932;BME280;22847;42.654;23.370;2023-12-20T12:45:09;94172.16;;;8.89;60.94
36932;BME280;22847;42.654;23.370;2023-12-20T12:47:35;94190.81;;;9.02;60.94
36932;BME280;22847;42.654;23.370;2023-12-20T12:50:00;94178.94;;;9.00;60.95
36932;BME280;22847;42.654;23.370;2023-12-20T12:52:26;94199.00;;;9.07;61.38
36932;BME280;22847;42.654;23.370;2023-12-20T12:54:53;94164.88;;;8.92;61.67
36932;BME280;22847;42.654;23.370;2023-12-20T12:57:19;94173.50;;;9.11;61.56
36932;BME280;22847;42.654;23.370;2023-12-20T12:59:45;94173.44;;;9.20;62.10